Time;durP1;ratioP1;P1;durP2;ratioP2;P2;SDS_P1;SDS_P2;PMS_P1;PMS_P2;Temp;Humidity;BMP_temperature;BMP_pressure;BME280_temperature;BME280_humidity;BME280_pressure;Samples;Min_cycle;Max_cycle;Signal;HPM_P1;HPM_P2
2021/04/14 00:00:27;;;;;;;4.93;3.03;;;1.30;67.30;;;;;;5086830;28;20203;-82
2021/04/14 00:02:54;;;;;;;7.18;3.45;;;1.30;67.50;;;;;;5101102;28;20674;-82
2021/04/14 00:05:24;;;;;;;6.88;4.45;;;1.30;66.90;;;;;;5085105;28;20205;-82
2021/04/14 00:07:50;;;;;;;4.60;3.75;;;1.30;66.50;;;;;;5093752;28;20226;-82
2021/04/14 00:10:20;;;;;;;6.25;3.55;;;1.30;66.90;;;;;;5085213;28;20207;-81
2021/04/14 00:12:47;;;;;;;3.67;3.38;;;1.30;67.00;;;;;;5091244;28;20203;-81
2021/04/14 00:15:18;;;;;;;3.28;3.00;;;1.40;67.90;;;;;;5084941;28;20242;-82
2021/04/14 00:17:44;;;;;;;3.25;2.95;;;1.30;67.50;;;;;;5094895;28;20191;-82
2021/04/14 00:20:12;;;;;;;4.20;2.95;;;1.40;66.80;;;;;;5087488;28;20231;-82
2021/04/14 00:22:39;;;;;;;4.10;2.90;;;1.50;66.90;;;;;;5085849;28;20206;-82
2021/04/14 00:25:07;;;;;;;3.22;2.92;;;1.30;66.90;;;;;;5090761;28;20198;-82
2021/04/14 00:27:36;;;;;;;3.70;3.40;;;1.30;67.30;;;;;;5089237;28;20840;-82
2021/04/14 00:30:06;;;;;;;2.85;2.65;;;1.20;67.20;;;;;;5094444;28;20191;-82
2021/04/14 00:32:32;;;;;;;3.40;3.08;;;1.20;67.10;;;;;;5093117;28;20252;-82
2021/04/14 00:34:59;;;;;;;4.38;3.13;;;1.30;67.10;;;;;;5094006;28;20199;-82
2021/04/14 00:37:25;;;;;;;2.60;2.40;;;1.40;68.10;;;;;;5084616;28;20261;-82
2021/04/14 00:39:53;;;;;;;3.38;2.33;;;1.40;66.80;;;;;;5094018;28;20613;-82
2021/04/14 00:42:19;;;;;;;3.42;3.08;;;1.50;66.70;;;;;;5087338;28;20253;-82
2021/04/14 00:44:47;;;;;;;3.00;2.70;;;1.30;67.00;;;;;;5088098;28;20195;-82
2021/04/14 00:47:14;;;;;;;2.90;2.65;;;1.10;67.30;;;;;;5092114;28;20191;-82
2021/04/14 00:49:40;;;;;;;5.20;2.50;;;1.10;67.80;;;;;;5091797;28;20227;-82
2021/04/14 00:52:07;;;;;;;4.60;3.30;;;1.20;67.40;;;;;;5091384;28;20202;-82
2021/04/14 00:54:33;;;;;;;3.08;2.83;;;1.30;66.50;;;;;;5084571;28;20198;-82
2021/04/14 00:57:00;;;;;;;3.40;2.55;;;1.30;66.20;;;;;;5095717;28;20249;-82
2021/04/14 00:59:27;;;;;;;5.20;2.83;;;1.40;66.40;;;;;;5084991;28;20192;-82
2021/04/14 01:01:53;;;;;;;4.20;3.63;;;1.30;66.60;;;;;;5098590;28;20213;-82
2021/04/14 01:04:24;;;;;;;6.13;2.75;;;1.40;66.80;;;;;;5088620;28;20194;-82
2021/04/14 01:06:52;;;;;;;3.47;3.05;;;1.40;66.50;;;;;;5093253;28;20206;-82
2021/04/14 01:09:20;;;;;;;3.60;2.95;;;1.50;67.30;;;;;;5087794;28;20229;-82
2021/04/14 01:11:49;;;;;;;3.03;2.72;;;1.60;66.70;;;;;;5081236;28;20202;-82
2021/04/14 01:14:17;;;;;;;3.70;3.35;;;1.70;65.90;;;;;;5087870;28;20209;-82
2021/04/14 01:16:44;;;;;;;3.28;2.67;;;1.70;66.00;;;;;;5084783;28;20716;-82
2021/04/14 01:19:13;;;;;;;7.28;2.78;;;1.80;66.00;;;;;;5086877;28;20713;-82
2021/04/14 01:21:43;;;;;;;2.47;2.28;;;1.80;66.20;;;;;;5084299;28;20323;-82
2021/04/14 01:24:14;;;;;;;4.53;3.13;;;1.80;66.40;;;;;;5089995;28;20198;-82
2021/04/14 01:26:42;;;;;;;3.13;2.80;;;1.60;66.50;;;;;;5094117;28;20194;-83
2021/04/14 01:29:12;;;;;;;2.88;2.67;;;1.60;66.80;;;;;;5088498;28;20527;-82
2021/04/14 01:31:41;;;;;;;3.10;2.80;;;1.50;66.70;;;;;;5085811;28;20203;-82
2021/04/14 01:34:13;;;;;;;3.80;2.95;;;1.40;68.00;;;;;;5086604;28;20195;-82
2021/04/14 01:36:44;;;;;;;2.63;2.42;;;1.30;67.40;;;;;;5080588;28;20203;-81
2021/04/14 01:39:13;;;;;;;2.90;2.70;;;1.40;67.20;;;;;;5086543;28;20249;-82
2021/04/14 01:41:45;;;;;;;3.05;2.75;;;1.10;67.00;;;;;;5091660;28;20187;-82
2021/04/14 01:44:13;;;;;;;5.15;2.20;;;1.10;67.40;;;;;;5082753;28;20202;-82
2021/04/14 01:46:42;;;;;;;3.33;3.03;;;1.10;67.50;;;;;;5089878;28;20209;-82
2021/04/14 01:49:10;;;;;;;3.10;2.85;;;1.20;67.00;;;;;;5090305;28;20309;-82
2021/04/14 01:51:38;;;;;;;2.67;2.45;;;1.30;67.50;;;;;;5089308;28;20202;-82
2021/04/14 01:54:07;;;;;;;4.13;3.13;;;1.20;68.00;;;;;;5085168;28;20210;-82
2021/04/14 01:56:35;;;;;;;2.72;2.53;;;1.20;67.30;;;;;;5089691;28;20202;-82
2021/04/14 01:59:03;;;;;;;2.20;2.00;;;1.20;67.50;;;;;;5086304;28;20230;-82
2021/04/14 02:01:30;;;;;;;7.22;2.53;;;1.00;67.90;;;;;;5085803;28;20220;-82
2021/04/14 02:03:58;;;;;;;3.33;2.85;;;0.80;68.40;;;;;;5089799;28;20191;-82
2021/04/14 02:06:25;;;;;;;3.22;2.92;;;1.00;69.50;;;;;;5089753;28;20339;-82
2021/04/14 02:08:54;;;;;;;4.63;3.03;;;1.00;68.80;;;;;;5092735;28;20221;-82
2021/04/14 02:11:22;;;;;;;3.15;2.85;;;1.20;68.60;;;;;;5085456;28;20195;-82
2021/04/14 02:13:53;;;;;;;3.50;3.20;;;1.30;67.70;;;;;;5088570;28;20663;-82
2021/04/14 02:16:22;;;;;;;3.15;2.85;;;1.30;67.20;;;;;;5084368;28;20226;-83
2021/04/14 02:18:50;;;;;;;2.85;2.33;;;1.40;67.30;;;;;;5089682;28;20201;-82
2021/04/14 02:21:18;;;;;;;9.05;3.60;;;1.40;65.90;;;;;;5086881;28;20201;-82
2021/04/14 02:23:46;;;;;;;5.72;3.30;;;1.40;66.20;;;;;;5097056;28;20305;-82
2021/04/14 02:26:14;;;;;;;3.63;2.83;;;1.30;65.80;;;;;;5093070;28;20272;-82
2021/04/14 02:28:44;;;;;;;3.42;3.05;;;1.50;66.10;;;;;;5096499;28;20206;-83
2021/04/14 02:31:11;;;;;;;2.90;2.70;;;1.40;66.30;;;;;;5093241;28;20248;-82
2021/04/14 02:33:37;;;;;;;4.05;3.60;;;1.20;66.80;;;;;;5090156;28;20209;-82
2021/04/14 02:36:05;;;;;;;3.42;3.08;;;1.00;67.90;;;;;;5093994;28;20194;-82
2021/04/14 02:38:31;;;;;;;4.80;3.47;;;1.10;68.00;;;;;;5088452;28;20592;-83
2021/04/14 02:40:58;;;;;;;2.92;2.67;;;1.10;67.20;;;;;;5103438;28;20205;-82
2021/04/14 02:43:24;;;;;;;4.05;3.65;;;1.20;66.80;;;;;;5088263;28;20202;-82
2021/04/14 02:45:52;;;;;;;4.68;3.45;;;1.10;66.60;;;;;;5089623;28;20201;-82
2021/04/14 02:48:18;;;;;;;4.13;3.50;;;1.20;67.70;;;;;;5094399;28;20223;-83
2021/04/14 02:50:45;;;;;;;3.45;2.72;;;1.20;67.20;;;;;;5090051;28;20218;-81
2021/04/14 02:53:12;;;;;;;4.18;3.28;;;1.30;67.60;;;;;;5102601;28;20284;-83
2021/04/14 02:55:40;;;;;;;4.20;3.25;;;1.10;67.70;;;;;;5069576;28;20554;-83
2021/04/14 02:58:06;;;;;;;4.13;3.65;;;0.80;67.80;;;;;;5094273;28;20187;-82
2021/04/14 03:00:33;;;;;;;3.90;3.42;;;0.60;69.10;;;;;;5085814;28;20260;-81
2021/04/14 03:03:01;;;;;;;7.00;3.72;;;0.40;70.50;;;;;;5093166;28;20210;-82
2021/04/14 03:05:31;;;;;;;4.70;2.90;;;0.40;71.40;;;;;;5096856;28;20207;-83
2021/04/14 03:07:58;;;;;;;4.95;2.92;;;0.50;72.70;;;;;;5089525;28;20675;-82
2021/04/14 03:10:25;;;;;;;2.83;2.60;;;0.40;72.60;;;;;;5088672;28;20674;-82
2021/04/14 03:12:52;;;;;;;3.00;2.80;;;0.60;73.40;;;;;;5087466;28;20237;-82
2021/04/14 03:15:22;;;;;;;3.22;2.92;;;0.70;72.50;;;;;;5090072;28;20656;-82
2021/04/14 03:17:48;;;;;;;3.08;2.78;;;0.80;70.60;;;;;;5086656;28;20660;-82
2021/04/14 03:20:17;;;;;;;3.58;3.22;;;0.80;71.40;;;;;;5092852;28;20202;-83
2021/04/14 03:22:43;;;;;;;3.55;3.25;;;0.50;71.60;;;;;;5087429;28;20198;-81
2021/04/14 03:25:11;;;;;;;5.90;3.20;;;0.50;72.40;;;;;;5092670;28;20203;-83
2021/04/14 03:27:37;;;;;;;4.65;3.20;;;0.50;72.60;;;;;;5082653;28;20207;-82
2021/04/14 03:30:05;;;;;;;2.90;2.67;;;0.50;72.90;;;;;;5088830;28;21111;-82
2021/04/14 03:32:32;;;;;;;3.25;2.80;;;0.40;72.90;;;;;;5089224;28;20213;-81
2021/04/14 03:34:58;;;;;;;4.03;3.15;;;0.40;73.90;;;;;;5089031;28;20213;-82
2021/04/14 03:37:26;;;;;;;3.45;3.20;;;0.60;73.10;;;;;;5091248;28;20813;-82
2021/04/14 03:39:52;;;;;;;3.45;3.05;;;0.80;71.70;;;;;;5073997;28;20226;-82
2021/04/14 03:42:18;;;;;;;2.80;2.63;;;0.80;69.90;;;;;;5096877;28;20656;-82
2021/04/14 03:44:46;;;;;;;4.07;3.65;;;0.90;69.70;;;;;;5084536;28;20680;-82
2021/04/14 03:47:13;;;;;;;3.38;3.10;;;0.90;70.30;;;;;;5096894;28;20234;-82
2021/04/14 03:49:39;;;;;;;3.50;3.20;;;0.90;70.40;;;;;;5088235;28;20644;-82
2021/04/14 03:52:06;;;;;;;5.40;3.20;;;0.80;70.40;;;;;;5091407;28;20199;-81
2021/04/14 03:54:33;;;;;;;4.45;3.28;;;0.80;71.50;;;;;;5096300;28;20210;-82
2021/04/14 03:56:59;;;;;;;8.13;4.25;;;0.80;71.30;;;;;;5095220;28;20203;-83
2021/04/14 03:59:26;;;;;;;6.35;4.45;;;0.90;70.90;;;;;;5090957;28;20202;-82
2021/04/14 04:01:54;;;;;;;5.28;4.50;;;1.00;70.90;;;;;;5085285;28;20726;-83
2021/04/14 04:04:20;;;;;;;4.57;3.60;;;1.00;70.30;;;;;;5092284;28;20222;-83
2021/04/14 04:06:47;;;;;;;3.80;3.50;;;0.90;70.00;;;;;;5084106;28;20198;-82
2021/04/14 04:09:14;;;;;;;5.25;4.75;;;0.90;70.20;;;;;;5105048;28;20209;-83
2021/04/14 04:11:41;;;;;;;6.20;3.90;;;0.90;69.90;;;;;;5087767;28;20203;-83
2021/04/14 04:14:08;;;;;;;4.57;4.28;;;0.90;70.70;;;;;;5086192;28;20218;-83
2021/04/14 04:16:34;;;;;;;3.42;3.13;;;0.80;71.20;;;;;;5093280;28;20203;-83
2021/04/14 04:19:01;;;;;;;5.07;2.70;;;0.70;70.30;;;;;;5091548;28;20199;-83
2021/04/14 04:21:27;;;;;;;5.40;3.55;;;0.60;69.80;;;;;;5086077;28;20209;-83
2021/04/14 04:23:53;;;;;;;3.42;3.13;;;0.80;70.10;;;;;;5094245;28;20199;-83
2021/04/14 04:26:20;;;;;;;4.00;2.72;;;0.80;70.20;;;;;;5088521;28;20203;-83
2021/04/14 04:28:48;;;;;;;4.93;3.83;;;0.80;70.80;;;;;;5091584;28;20668;-83
2021/04/14 04:31:14;;;;;;;3.10;2.80;;;0.90;70.20;;;;;;5085802;28;20214;-83
2021/04/14 04:33:41;;;;;;;4.18;3.03;;;0.90;70.00;;;;;;5096468;28;20210;-83
2021/04/14 04:36:08;;;;;;;4.53;3.70;;;0.80;68.80;;;;;;5088210;28;20199;-83
2021/04/14 04:38:34;;;;;;;4.80;3.58;;;1.00;69.20;;;;;;5089008;28;20202;-81
2021/04/14 04:41:01;;;;;;;4.82;4.43;;;1.00;68.60;;;;;;5091170;28;20272;-83
2021/04/14 04:43:28;;;;;;;3.70;3.40;;;0.90;67.90;;;;;;5086239;28;20206;-83
2021/04/14 04:45:56;;;;;;;4.53;4.22;;;0.90;68.60;;;;;;5098139;28;20668;-83
2021/04/14 04:48:22;;;;;;;3.50;3.20;;;0.70;69.30;;;;;;5087016;28;20277;-83
2021/04/14 04:50:49;;;;;;;4.10;3.78;;;0.70;69.40;;;;;;5098832;28;20195;-83
2021/04/14 04:53:18;;;;;;;7.82;4.20;;;0.70;69.30;;;;;;5089660;28;20209;-82
2021/04/14 04:55:46;;;;;;;5.22;3.33;;;0.70;69.10;;;;;;5087443;28;20207;-82
2021/04/14 04:58:14;;;;;;;9.93;4.70;;;0.60;70.20;;;;;;5085680;28;20621;-83
2021/04/14 05:00:41;;;;;;;5.93;4.32;;;0.70;71.60;;;;;;5092713;28;20235;-82
2021/04/14 05:03:08;;;;;;;9.82;4.20;;;0.50;71.50;;;;;;5086082;28;20241;-83
2021/04/14 05:05:37;;;;;;;5.18;4.03;;;0.60;72.10;;;;;;5089600;28;20207;-83
2021/04/14 05:08:04;;;;;;;5.18;4.00;;;0.50;72.60;;;;;;5094257;28;20268;-83
2021/04/14 05:10:32;;;;;;;8.57;4.05;;;0.30;73.00;;;;;;5091793;28;20234;-83
2021/04/14 05:12:59;;;;;;;4.40;4.00;;;0.50;73.10;;;;;;5092462;28;20225;-83
2021/04/14 05:15:28;;;;;;;6.22;5.63;;;0.80;72.20;;;;;;5090847;28;20207;-83
2021/04/14 05:17:55;;;;;;;7.18;5.25;;;1.00;71.20;;;;;;5092809;28;20246;-83
2021/04/14 05:20:22;;;;;;;4.78;4.38;;;1.10;70.70;;;;;;5091454;28;20222;-84
2021/04/14 05:22:49;;;;;;;7.50;4.88;;;1.00;71.20;;;;;;5086262;28;20190;-83
2021/04/14 05:25:17;;;;;;;7.00;4.78;;;0.80;71.70;;;;;;5087779;28;20260;-84
2021/04/14 05:27:44;;;;;;;14.02;4.63;;;1.00;73.00;;;;;;5092932;28;20194;-83
2021/04/14 05:30:12;;;;;;;6.20;4.30;;;1.00;72.80;;;;;;5085897;28;20212;-83
2021/04/14 05:32:38;;;;;;;5.55;4.88;;;0.80;72.90;;;;;;5093865;28;20206;-84
2021/04/14 05:35:07;;;;;;;7.07;6.38;;;0.90;73.40;;;;;;5089079;28;20199;-84
2021/04/14 05:37:34;;;;;;;7.32;5.90;;;1.20;73.40;;;;;;5095983;28;20601;-84
2021/04/14 05:40:01;;;;;;;14.10;5.50;;;1.40;72.70;;;;;;5090017;28;20205;-84
2021/04/14 05:42:28;;;;;;;8.10;5.60;;;1.50;71.70;;;;;;5091375;28;20880;-84
2021/04/14 05:44:54;;;;;;;5.72;4.70;;;1.60;71.70;;;;;;5092825;28;20558;-84
2021/04/14 05:47:21;;;;;;;18.27;5.15;;;1.80;71.80;;;;;;5087339;28;20202;-84
2021/04/14 05:49:47;;;;;;;7.40;4.75;;;1.70;72.00;;;;;;5092119;28;20218;-84
2021/04/14 05:52:14;;;;;;;5.35;4.15;;;1.70;72.60;;;;;;5082461;28;20195;-83
2021/04/14 05:54:41;;;;;;;4.45;4.05;;;1.80;72.40;;;;;;5089312;28;20691;-83
2021/04/14 05:57:08;;;;;;;8.10;4.70;;;1.60;72.10;;;;;;5082360;28;20199;-84
2021/04/14 05:59:35;;;;;;;6.78;5.47;;;1.50;72.30;;;;;;5088387;28;20202;-82
2021/04/14 06:02:01;;;;;;;6.18;3.72;;;1.60;72.70;;;;;;5089022;28;20245;-82
2021/04/14 06:04:28;;;;;;;5.88;3.88;;;1.80;72.50;;;;;;5085601;28;20657;-83
2021/04/14 06:06:54;;;;;;;3.55;3.25;;;1.90;71.50;;;;;;5084458;28;20206;-83
2021/04/14 06:09:21;;;;;;;4.28;3.60;;;1.60;70.50;;;;;;5097418;28;20223;-84
2021/04/14 06:11:48;;;;;;;5.10;3.72;;;1.70;70.60;;;;;;5097535;28;20202;-83
2021/04/14 06:14:15;;;;;;;4.70;3.58;;;1.90;70.00;;;;;;5087625;28;20209;-83
2021/04/14 06:16:41;;;;;;;6.03;4.40;;;2.00;70.20;;;;;;5091126;28;20199;-82
2021/04/14 06:19:08;;;;;;;4.32;3.60;;;2.30;69.40;;;;;;5089680;28;20210;-84
2021/04/14 06:21:34;;;;;;;4.78;3.72;;;2.50;68.70;;;;;;5087377;28;20609;-82
2021/04/14 06:24:01;;;;;;;5.55;3.88;;;2.60;67.70;;;;;;5082159;28;20562;-83
2021/04/14 06:26:37;;;;;;;4.00;3.50;;;2.60;67.20;;;;;;5085354;28;20289;-84
2021/04/14 06:29:05;;;;;;;10.07;3.88;;;2.40;67.20;;;;;;5091121;28;20309;-84
2021/04/14 06:31:39;;;;;;;5.57;3.85;;;2.50;67.80;;;;;;5083493;28;20203;-84
2021/04/14 06:34:14;;;;;;;5.80;4.38;;;2.50;68.70;;;;;;5098127;28;20250;-84
2021/04/14 06:36:45;;;;;;;5.35;4.43;;;2.50;68.70;;;;;;5092953;28;20233;-84
2021/04/14 06:39:13;;;;;;;4.65;3.80;;;2.60;69.10;;;;;;5088026;28;20205;-85
2021/04/14 06:42:07;;;;;;;4.57;4.15;;;2.70;68.50;;;;;;5091026;28;20198;-84
2021/04/14 06:45:03;;;;;;;4.43;4.03;;;2.80;68.20;;;;;;5089082;28;20952;-84
2021/04/14 06:47:38;;;;;;;5.35;4.72;;;2.90;67.10;;;;;;5084774;28;20207;-85
2021/04/14 06:50:11;;;;;;;4.68;4.28;;;3.00;67.50;;;;;;5089142;28;20305;-85
2021/04/14 06:52:43;;;;;;;3.53;3.22;;;3.30;66.30;;;;;;5087269;28;20199;-85
2021/04/14 06:55:14;;;;;;;6.95;4.70;;;3.30;64.90;;;;;;5089056;28;20206;-85
2021/04/14 06:57:45;;;;;;;5.82;4.45;;;3.60;65.40;;;;;;5088462;28;20203;-84
2021/04/14 07:00:20;;;;;;;3.95;3.65;;;4.10;65.20;;;;;;5085772;28;20667;-86
2021/04/14 07:02:52;;;;;;;9.98;5.28;;;3.90;63.10;;;;;;5087792;28;20214;-84
2021/04/14 07:05:28;;;;;;;5.15;4.68;;;3.90;64.10;;;;;;5083559;28;20241;-85
2021/04/14 07:07:57;;;;;;;4.82;4.43;;;3.70;63.20;;;;;;5092094;28;20234;-85
2021/04/14 07:10:26;;;;;;;7.40;4.40;;;4.10;64.70;;;;;;5089471;28;20210;-84
2021/04/14 07:12:59;;;;;;;11.95;4.75;;;4.30;63.40;;;;;;5086936;28;20222;-85
2021/04/14 07:15:27;;;;;;;5.78;5.20;;;4.30;63.30;;;;;;5092031;28;20209;-83
2021/04/14 07:18:06;;;;;;;6.22;4.63;;;4.50;62.30;;;;;;5092857;28;20207;-84
2021/04/14 07:20:36;;;;;;;5.15;4.65;;;4.70;62.00;;;;;;5092061;28;20297;-83
2021/04/14 07:23:16;;;;;;;6.20;5.00;;;4.90;62.70;;;;;;5090562;28;20191;-87
2021/04/14 07:25:47;;;;;;;6.07;5.47;;;5.30;62.00;;;;;;5090957;28;20217;-86
2021/04/14 07:28:31;;;;;;;15.85;5.35;;;5.00;60.20;;;;;;5092772;28;20203;-84
2021/04/14 07:31:05;;;;;;;8.45;6.10;;;4.80;61.90;;;;;;5091358;28;20196;-83
2021/04/14 07:33:42;;;;;;;6.70;5.50;;;4.60;61.80;;;;;;5092519;28;20202;-83
2021/04/14 07:36:16;;;;;;;6.95;6.32;;;4.80;62.90;;;;;;5094656;28;20198;-85
2021/04/14 07:39:00;;;;;;;9.13;6.00;;;4.80;61.90;;;;;;5089656;28;20187;-85
2021/04/14 07:41:46;;;;;;;5.85;5.13;;;4.60;62.80;;;;;;5092451;28;20263;-85
2021/04/14 07:44:18;;;;;;;5.78;5.28;;;4.20;61.80;;;;;;5089048;28;20194;-82
2021/04/14 07:46:48;;;;;;;6.30;5.70;;;4.50;63.20;;;;;;5090996;28;20324;-82
2021/04/14 07:49:16;;;;;;;7.25;5.95;;;4.90;63.30;;;;;;5091412;28;20240;-83
2021/04/14 07:51:43;;;;;;;9.88;6.32;;;4.80;60.90;;;;;;5093396;28;20207;-82
2021/04/14 07:54:14;;;;;;;6.15;5.55;;;4.80;61.40;;;;;;5092372;28;20519;-82
2021/04/14 07:56:45;;;;;;;5.25;4.78;;;4.90;61.70;;;;;;5089001;28;20924;-82
2021/04/14 07:59:14;;;;;;;7.22;4.97;;;4.80;61.60;;;;;;5091758;28;20194;-83
2021/04/14 08:01:54;;;;;;;6.32;5.75;;;4.70;61.70;;;;;;5090016;28;20215;-82
2021/04/14 08:04:25;;;;;;;6.75;6.15;;;4.60;62.00;;;;;;5092109;28;20202;-82
2021/04/14 08:06:52;;;;;;;6.28;5.57;;;5.00;62.60;;;;;;5091870;28;20289;-82
2021/04/14 08:09:21;;;;;;;6.45;5.80;;;4.90;60.40;;;;;;5090182;28;20281;-83
2021/04/14 08:11:49;;;;;;;5.90;5.35;;;5.00;62.60;;;;;;5091932;28;20201;-82
2021/04/14 08:14:19;;;;;;;9.05;5.60;;;5.40;61.90;;;;;;5092464;28;20679;-83
2021/04/14 08:16:53;;;;;;;6.82;5.82;;;5.70;60.50;;;;;;5091503;28;20229;-83
2021/04/14 08:19:24;;;;;;;5.50;5.00;;;5.60;60.20;;;;;;5090400;28;20207;-83
2021/04/14 08:21:57;;;;;;;7.20;5.07;;;5.80;60.60;;;;;;5095980;28;20245;-83
2021/04/14 08:24:32;;;;;;;7.55;5.88;;;5.60;58.90;;;;;;5084559;28;20280;-83
2021/04/14 08:27:01;;;;;;;7.90;5.25;;;5.30;58.90;;;;;;5090246;28;20198;-84
2021/04/14 08:29:28;;;;;;;5.80;5.30;;;5.50;59.90;;;;;;5089044;28;20715;-83
2021/04/14 08:31:57;;;;;;;7.60;4.97;;;5.90;60.70;;;;;;5091741;28;20199;-84
2021/04/14 08:34:27;;;;;;;5.78;5.20;;;6.20;58.90;;;;;;5090898;28;20673;-84
2021/04/14 08:36:59;;;;;;;6.45;4.88;;;6.00;58.40;;;;;;5086499;28;20195;-84
2021/04/14 08:39:30;;;;;;;9.10;5.70;;;6.00;59.50;;;;;;5090102;28;20249;-84
2021/04/14 08:42:29;;;;;;;9.32;5.85;;;6.40;59.00;;;;;;5089853;28;20725;-83
2021/04/14 08:45:09;;;;;;;4.82;4.43;;;6.20;58.00;;;;;;5075403;28;20213;-83
2021/04/14 08:47:42;;;;;;;5.50;4.93;;;6.10;57.90;;;;;;5085955;28;20198;-83
2021/04/14 08:50:16;;;;;;;9.00;5.15;;;6.50;58.30;;;;;;5092322;28;20211;-84
2021/04/14 08:52:44;;;;;;;4.80;4.40;;;6.40;57.50;;;;;;5090408;28;20237;-83
2021/04/14 08:55:13;;;;;;;5.15;4.70;;;6.50;58.60;;;;;;5092404;28;20194;-83
2021/04/14 08:57:39;;;;;;;4.25;3.92;;;6.60;57.20;;;;;;5092910;28;20205;-84
2021/04/14 09:00:09;;;;;;;6.43;5.15;;;6.60;57.10;;;;;;5092593;28;20664;-83
2021/04/14 09:02:40;;;;;;;5.22;4.68;;;7.00;58.20;;;;;;5091216;28;20202;-84
2021/04/14 09:05:10;;;;;;;4.78;4.35;;;7.20;57.30;;;;;;5092697;28;20194;-84
2021/04/14 09:07:38;;;;;;;6.22;4.05;;;7.20;55.60;;;;;;5093062;28;20195;-82
2021/04/14 09:10:09;;;;;;;5.18;4.50;;;6.50;56.50;;;;;;5091786;28;20230;-83
2021/04/14 09:12:48;;;;;;;6.75;4.70;;;6.30;57.10;;;;;;5092406;28;20199;-82
2021/04/14 09:15:15;;;;;;;5.20;4.60;;;6.00;57.00;;;;;;5089105;28;20201;-83
2021/04/14 09:17:45;;;;;;;4.38;3.90;;;6.40;57.60;;;;;;5089924;28;20191;-82
2021/04/14 09:20:19;;;;;;;4.40;4.00;;;6.70;58.30;;;;;;5092295;28;20656;-83
2021/04/14 09:22:57;;;;;;;6.68;4.05;;;7.00;56.60;;;;;;5091170;28;20269;-83
2021/04/14 09:25:30;;;;;;;5.22;4.78;;;7.10;55.20;;;;;;5088285;28;20213;-83
2021/04/14 09:28:01;;;;;;;4.40;3.97;;;7.30;55.70;;;;;;5084546;28;20194;-83
2021/04/14 09:30:34;;;;;;;4.80;4.05;;;7.40;55.30;;;;;;5090029;28;20703;-83
2021/04/14 09:33:16;;;;;;;6.95;4.55;;;7.30;55.20;;;;;;5086075;28;20207;-83
2021/04/14 09:36:04;;;;;;;4.55;4.15;;;7.00;54.70;;;;;;5089354;28;20197;-83
2021/04/14 09:38:36;;;;;;;3.88;3.58;;;7.20;55.40;;;;;;5087639;28;20187;-82
2021/04/14 09:41:36;;;;;;;4.55;4.00;;;6.60;53.80;;;;;;5091862;28;20700;-83
2021/04/14 09:44:31;;;;;;;4.50;4.10;;;6.90;54.30;;;;;;5090932;28;20226;-83
2021/04/14 09:47:11;;;;;;;6.28;4.00;;;6.70;54.60;;;;;;5092245;28;20203;-83
2021/04/14 09:49:41;;;;;;;5.75;3.80;;;7.00;54.80;;;;;;5088082;28;20222;-83
2021/04/14 09:52:24;;;;;;;3.53;3.22;;;7.30;54.80;;;;;;5090385;28;20285;-83
2021/04/14 09:54:54;;;;;;;3.45;3.15;;;7.30;53.00;;;;;;5094091;28;20281;-83
2021/04/14 09:57:27;;;;;;;4.40;3.05;;;7.40;51.20;;;;;;5088575;28;20205;-83
2021/04/14 09:59:57;;;;;;;5.25;3.53;;;7.40;49.60;;;;;;5091922;28;20237;-83
2021/04/14 10:02:26;;;;;;;4.93;4.03;;;7.70;49.90;;;;;;5087870;28;20207;-83
2021/04/14 10:04:54;;;;;;;7.43;4.05;;;7.90;50.00;;;;;;5090613;28;20199;-83
2021/04/14 10:07:24;;;;;;;3.90;3.50;;;7.70;50.80;;;;;;5091243;28;20679;-83
2021/04/14 10:09:51;;;;;;;2.70;2.50;;;7.90;50.90;;;;;;5095826;28;20272;-83
2021/04/14 10:12:19;;;;;;;3.72;2.28;;;8.20;50.50;;;;;;5091194;28;20202;-83
2021/04/14 10:14:49;;;;;;;3.33;3.13;;;8.30;47.10;;;;;;5088775;28;20203;-84
2021/04/14 10:17:19;;;;;;;3.58;3.25;;;8.30;47.50;;;;;;5090977;28;20206;-83
2021/04/14 10:19:51;;;;;;;4.85;3.05;;;8.10;48.80;;;;;;5087956;28;20203;-83
2021/04/14 10:22:23;;;;;;;6.22;2.90;;;8.50;49.90;;;;;;5087149;28;20222;-83
2021/04/14 10:24:59;;;;;;;3.30;3.00;;;8.50;49.00;;;;;;5087786;28;20205;-84
2021/04/14 10:27:26;;;;;;;2.95;2.75;;;8.70;48.60;;;;;;5088918;28;20210;-84
2021/04/14 10:29:52;;;;;;;3.60;3.28;;;9.00;47.60;;;;;;5097074;28;20243;-84
2021/04/14 10:32:23;;;;;;;3.45;3.15;;;8.90;45.80;;;;;;5095547;28;20199;-85
2021/04/14 10:34:51;;;;;;;4.55;2.72;;;9.30;46.60;;;;;;5096948;28;20245;-84
2021/04/14 10:37:20;;;;;;;3.35;3.15;;;9.50;46.20;;;;;;5086800;28;20678;-84
2021/04/14 10:39:48;;;;;;;4.45;3.25;;;9.70;46.70;;;;;;5084768;28;20199;-84
2021/04/14 10:42:18;;;;;;;4.45;2.65;;;9.50;46.30;;;;;;5089478;28;20237;-84
2021/04/14 10:44:45;;;;;;;3.45;3.08;;;9.60;46.90;;;;;;5083996;28;20214;-84
2021/04/14 10:47:17;;;;;;;3.80;3.50;;;9.80;46.20;;;;;;5090771;28;20567;-84
2021/04/14 10:49:44;;;;;;;4.53;3.60;;;10.10;45.40;;;;;;5090200;28;20230;-84
2021/04/14 10:52:14;;;;;;;4.53;3.70;;;10.40;46.20;;;;;;5091159;28;20206;-84
2021/04/14 10:54:46;;;;;;;4.53;4.13;;;10.60;47.60;;;;;;5084408;28;20225;-85
2021/04/14 10:57:18;;;;;;;3.90;3.60;;;10.50;47.70;;;;;;5095935;28;20196;-85
2021/04/14 10:59:47;;;;;;;4.93;3.30;;;10.60;47.90;;;;;;5092980;28;20193;-84
2021/04/14 11:02:21;;;;;;;3.50;3.30;;;10.50;47.50;;;;;;5097182;28;20289;-85
2021/04/14 11:04:49;;;;;;;4.50;3.90;;;10.30;47.10;;;;;;5093355;28;20203;-86
2021/04/14 11:07:21;;;;;;;3.92;3.35;;;9.70;48.20;;;;;;5091218;28;20565;-84
2021/04/14 11:09:50;;;;;;;4.57;4.18;;;9.30;48.50;;;;;;5094992;28;20298;-84
2021/04/14 11:12:19;;;;;;;6.07;3.95;;;8.90;48.80;;;;;;5096940;28;20209;-84
2021/04/14 11:14:49;;;;;;;4.18;3.88;;;8.60;48.80;;;;;;5094359;28;20199;-83
2021/04/14 11:17:19;;;;;;;3.70;3.40;;;8.50;49.60;;;;;;5089107;28;20202;-85
2021/04/14 11:19:54;;;;;;;4.10;3.80;;;8.30;49.00;;;;;;5094391;28;20572;-83
2021/04/14 11:22:21;;;;;;;4.20;3.60;;;8.40;50.10;;;;;;5092983;28;20208;-83
2021/04/14 11:24:51;;;;;;;4.55;4.15;;;8.30;50.00;;;;;;5092882;28;20194;-83
2021/04/14 11:27:22;;;;;;;3.80;3.50;;;8.40;49.50;;;;;;5090212;28;20198;-83
2021/04/14 11:29:50;;;;;;;4.30;4.00;;;8.50;49.80;;;;;;5093744;28;20275;-83
2021/04/14 11:32:20;;;;;;;4.22;3.42;;;8.30;48.70;;;;;;5088768;28;20199;-83
2021/04/14 11:35:01;;;;;;;4.60;4.30;;;8.20;49.50;;;;;;5095117;28;20281;-81
2021/04/14 11:37:44;;;;;;;4.13;3.75;;;7.40;49.80;;;;;;5092990;28;20206;-82
2021/04/14 11:40:41;;;;;;;6.25;4.70;;;7.10;49.70;;;;;;5094340;28;20198;-82
2021/04/14 11:43:26;;;;;;;8.32;4.20;;;7.70;49.40;;;;;;5090468;28;20206;-82
2021/04/14 11:45:58;;;;;;;4.63;4.22;;;8.10;46.70;;;;;;5092817;28;20289;-81
2021/04/14 11:48:37;;;;;;;4.13;3.70;;;8.60;44.80;;;;;;5091969;28;20210;-82
2021/04/14 11:51:29;;;;;;;7.78;3.30;;;9.00;44.90;;;;;;5090891;28;20198;-83
2021/04/14 11:54:00;;;;;;;3.88;3.58;;;9.40;45.00;;;;;;5089713;28;20206;-82
2021/04/14 11:56:41;;;;;;;3.83;3.53;;;9.50;43.50;;;;;;5092721;28;20694;-83
2021/04/14 11:59:26;;;;;;;3.47;3.17;;;9.30;43.30;;;;;;5089950;28;20202;-83
2021/04/14 12:01:57;;;;;;;10.13;3.45;;;10.10;44.20;;;;;;5092289;28;20210;-83
2021/04/14 12:04:24;;;;;;;4.20;3.60;;;10.90;43.90;;;;;;5093520;28;20263;-84
2021/04/14 12:06:51;;;;;;;4.60;3.43;;;12.30;42.10;;;;;;5089064;28;20616;-83
2021/04/14 12:09:17;;;;;;;4.33;3.93;;;13.30;41.40;;;;;;5088252;28;20648;-82
2021/04/14 12:11:46;;;;;;;3.30;2.70;;;12.40;39.80;;;;;;5089490;28;20674;-83
2021/04/14 12:14:13;;;;;;;4.00;3.60;;;11.50;41.40;;;;;;5093346;28;20632;-85
2021/04/14 12:16:39;;;;;;;4.70;4.30;;;12.00;42.40;;;;;;5093090;28;20937;-82
2021/04/14 12:19:06;;;;;;;4.73;3.13;;;12.80;41.70;;;;;;5094603;28;20647;-84
2021/04/14 12:21:33;;;;;;;3.50;3.30;;;13.90;40.90;;;;;;5092297;28;20620;-85
2021/04/14 12:23:59;;;;;;;3.53;3.23;;;14.30;40.20;;;;;;5088375;28;20629;-82
2021/04/14 12:26:26;;;;;;;5.53;3.73;;;15.30;38.30;;;;;;5092745;28;20645;-82
2021/04/14 12:28:53;;;;;;;3.80;3.50;;;14.10;38.10;;;;;;5093753;28;20782;-82
2021/04/14 12:31:20;;;;;;;3.83;3.43;;;13.60;39.50;;;;;;5090664;28;21042;-82
2021/04/14 12:33:46;;;;;;;3.47;3.17;;;12.70;39.20;;;;;;5088269;28;20986;-82
2021/04/14 12:36:15;;;;;;;2.83;2.63;;;13.60;39.70;;;;;;5091334;28;20622;-83
2021/04/14 12:38:41;;;;;;;6.90;3.00;;;14.10;37.60;;;;;;5092055;28;21204;-82
2021/04/14 12:41:08;;;;;;;3.63;3.30;;;14.10;36.80;;;;;;5091837;28;20637;-83
2021/04/14 12:43:35;;;;;;;3.70;3.40;;;13.70;36.90;;;;;;5090429;28;20627;-82
2021/04/14 12:46:03;;;;;;;3.80;3.50;;;13.20;39.70;;;;;;5089191;28;20616;-84
2021/04/14 12:48:30;;;;;;;3.17;2.97;;;10.90;42.40;;;;;;5090470;28;21017;-84
2021/04/14 12:51:06;;;;;;;3.43;2.90;;;10.70;46.10;;;;;;5091744;28;20623;-84
2021/04/14 12:53:36;;;;;;;3.70;3.37;;;11.10;47.10;;;;;;5090127;28;20621;-88
2021/04/14 12:56:04;;;;;;;3.40;3.20;;;11.90;46.00;;;;;;5092825;28;20602;-84
2021/04/14 12:58:36;;;;;;;3.10;2.80;;;13.90;44.40;;;;;;5086161;28;20608;-84
2021/04/14 13:01:04;;;;;;;2.60;2.40;;;17.20;41.60;;;;;;5090206;28;20670;-82
2021/04/14 13:03:38;;;;;;;4.10;3.40;;;16.60;36.00;;;;;;5089230;28;20618;-82
2021/04/14 13:06:12;;;;;;;3.33;3.13;;;16.90;38.90;;;;;;5091249;28;20631;-82
2021/04/14 13:08:43;;;;;;;2.73;2.60;;;18.50;38.50;;;;;;5089009;28;20631;-83